sensor_id;sensor_type;location;lat;lon;timestamp;pressure;altitude;pressure_sealevel;temperature;humidity
12897;BME280;6516;35.028;32.372;2023-07-30T00:01:50;98879.41;;;25.14;85.59
12897;BME280;6516;35.028;32.372;2023-07-30T00:04:17;98869.84;;;24.92;87.02
12897;BME280;6516;35.028;32.372;2023-07-30T00:06:47;98875.44;;;24.81;88.04
12897;BME280;6516;35.028;32.372;2023-07-30T00:09:14;98874.44;;;25.46;85.89
12897;BME280;6516;35.028;32.372;2023-07-30T00:11:42;98869.41;;;25.78;82.91
12897;BME280;6516;35.028;32.372;2023-07-30T00:14:10;98871.19;;;25.42;83.96
12897;BME280;6516;35.028;32.372;2023-07-30T00:16:38;98870.44;;;25.23;86.56
12897;BME280;6516;35.028;32.372;2023-07-30T00:19:06;98866.31;;;24.92;88.20
12897;BME280;6516;35.028;32.372;2023-07-30T00:21:34;98865.97;;;24.68;89.58
12897;BME280;6516;35.028;32.372;2023-07-30T00:24:04;98865.94;;;25.41;87.56
12897;BME280;6516;35.028;32.372;2023-07-30T00:26:35;98857.63;;;25.96;84.55
12897;BME280;6516;35.028;32.372;2023-07-30T00:29:03;98856.19;;;25.57;84.85
12897;BME280;6516;35.028;32.372;2023-07-30T00:31:31;98865.00;;;25.32;86.89
12897;BME280;6516;35.028;32.372;2023-07-30T00:33:59;98866.38;;;25.09;89.52
12897;BME280;6516;35.028;32.372;2023-07-30T00:36:27;98861.47;;;24.95;90.75
12897;BME280;6516;35.028;32.372;2023-07-30T00:38:55;98861.34;;;25.24;91.19
12897;BME280;6516;35.028;32.372;2023-07-30T00:41:24;98859.59;;;25.59;88.73
12897;BME280;6516;35.028;32.372;2023-07-30T00:43:52;98855.56;;;25.46;88.79
12897;BME280;6516;35.028;32.372;2023-07-30T00:46:20;98859.00;;;25.38;90.62
12897;BME280;6516;35.028;32.372;2023-07-30T00:48:48;98859.63;;;25.32;91.98
12897;BME280;6516;35.028;32.372;2023-07-30T00:51:16;98858.78;;;25.22;93.08
12897;BME280;6516;35.028;32.372;2023-07-30T00:54:04;98852.22;;;25.61;96.49
12897;BME280;6516;35.028;32.372;2023-07-30T00:56:34;98853.97;;;26.05;94.62
12897;BME280;6516;35.028;32.372;2023-07-30T00:59:02;98858.50;;;25.87;93.87
12897;BME280;6516;35.028;32.372;2023-07-30T01:01:33;98851.81;;;25.74;94.16
12897;BME280;6516;35.028;32.372;2023-07-30T01:04:04;98854.72;;;25.63;94.56
12897;BME280;6516;35.028;32.372;2023-07-30T01:06:34;98844.03;;;25.53;95.87
12897;BME280;6516;35.028;32.372;2023-07-30T01:09:03;98850.22;;;25.98;96.60
12897;BME280;6516;35.028;32.372;2023-07-30T01:11:30;98844.16;;;26.22;94.61
12897;BME280;6516;35.028;32.372;2023-07-30T01:14:01;98844.88;;;26.06;94.13
12897;BME280;6516;35.028;32.372;2023-07-30T01:16:31;98846.16;;;25.94;94.13
12897;BME280;6516;35.028;32.372;2023-07-30T01:18:59;98853.75;;;25.81;94.92
12897;BME280;6516;35.028;32.372;2023-07-30T01:21:55;98850.03;;;25.82;96.65
12897;BME280;6516;35.028;32.372;2023-07-30T01:24:22;98852.03;;;26.15;95.26
12897;BME280;6516;35.028;32.372;2023-07-30T01:26:55;98843.59;;;26.36;92.69
12897;BME280;6516;35.028;32.372;2023-07-30T01:29:30;98841.44;;;26.14;91.94
12897;BME280;6516;35.028;32.372;2023-07-30T01:32:11;98838.59;;;25.98;93.04
12897;BME280;6516;35.028;32.372;2023-07-30T01:34:40;98849.34;;;25.80;93.42
12897;BME280;6516;35.028;32.372;2023-07-30T01:37:12;98841.09;;;25.64;94.89
12897;BME280;6516;35.028;32.372;2023-07-30T01:39:40;98843.59;;;25.93;96.15
12897;BME280;6516;35.028;32.372;2023-07-30T01:42:11;98841.94;;;26.17;94.06
12897;BME280;6516;35.028;32.372;2023-07-30T01:44:39;98836.25;;;26.03;92.28
12897;BME280;6516;35.028;32.372;2023-07-30T01:47:07;98847.81;;;25.78;92.62
12897;BME280;6516;35.028;32.372;2023-07-30T01:49:35;98852.22;;;25.61;93.88
12897;BME280;6516;35.028;32.372;2023-07-30T01:52:03;98848.03;;;25.49;95.26
12897;BME280;6516;35.028;32.372;2023-07-30T01:54:33;98855.47;;;25.38;96.28
12897;BME280;6516;35.028;32.372;2023-07-30T01:57:01;98845.41;;;25.57;97.10
12897;BME280;6516;35.028;32.372;2023-07-30T01:59:28;98841.56;;;25.95;95.58
12897;BME280;6516;35.028;32.372;2023-07-30T02:01:56;98839.44;;;25.98;92.50
12897;BME280;6516;35.028;32.372;2023-07-30T02:04:27;98845.66;;;25.81;93.05
12897;BME280;6516;35.028;32.372;2023-07-30T02:06:55;98845.31;;;25.67;93.30
12897;BME280;6516;35.028;32.372;2023-07-30T02:09:23;98848.03;;;25.49;94.40
12897;BME280;6516;35.028;32.372;2023-07-30T02:11:54;98840.94;;;25.66;96.42
12897;BME280;6516;35.028;32.372;2023-07-30T02:14:22;98837.63;;;25.89;94.96
12897;BME280;6516;35.028;32.372;2023-07-30T02:16:50;98848.72;;;25.86;92.38
12897;BME280;6516;35.028;32.372;2023-07-30T02:19:18;98850.72;;;25.67;93.22
12897;BME280;6516;35.028;32.372;2023-07-30T02:21:46;98845.88;;;25.53;93.67
12897;BME280;6516;35.028;32.372;2023-07-30T02:24:13;98845.53;;;25.38;94.63
12897;BME280;6516;35.028;32.372;2023-07-30T02:26:41;98852.16;;;25.26;95.49
12897;BME280;6516;35.028;32.372;2023-07-30T02:29:10;98842.69;;;25.40;97.66
12897;BME280;6516;35.028;32.372;2023-07-30T02:31:38;98843.88;;;25.72;96.35
12897;BME280;6516;35.028;32.372;2023-07-30T02:34:06;98849.03;;;25.83;94.06
12897;BME280;6516;35.028;32.372;2023-07-30T02:36:34;98853.94;;;25.70;94.03
12897;BME280;6516;35.028;32.372;2023-07-30T02:39:02;98857.03;;;25.58;94.19
12897;BME280;6516;35.028;32.372;2023-07-30T02:41:31;98850.88;;;25.48;94.70
12897;BME280;6516;35.028;32.372;2023-07-30T02:43:58;98854.47;;;25.56;96.63
12897;BME280;6516;35.028;32.372;2023-07-30T02:46:28;98859.00;;;26.00;94.66
12897;BME280;6516;35.028;32.372;2023-07-30T02:48:56;98852.16;;;26.06;92.51
12897;BME280;6516;35.028;32.372;2023-07-30T02:51:23;98857.09;;;25.93;93.08
12897;BME280;6516;35.028;32.372;2023-07-30T02:53:52;98860.28;;;25.79;92.98
12897;BME280;6516;35.028;32.372;2023-07-30T02:56:20;98865.22;;;25.66;93.67
12897;BME280;6516;35.028;32.372;2023-07-30T02:58:48;98869.69;;;25.57;94.19
12897;BME280;6516;35.028;32.372;2023-07-30T03:01:16;98869.59;;;25.49;95.55
12897;BME280;6516;35.028;32.372;2023-07-30T03:03:48;98875.31;;;25.81;96.34
12897;BME280;6516;35.028;32.372;2023-07-30T03:06:18;98880.81;;;26.07;94.59
12897;BME280;6516;35.028;32.372;2023-07-30T03:08:46;98870.09;;;25.97;93.89
12897;BME280;6516;35.028;32.372;2023-07-30T03:11:17;98868.63;;;25.85;93.67
12897;BME280;6516;35.028;32.372;2023-07-30T03:13:45;98873.25;;;25.75;93.72
12897;BME280;6516;35.028;32.372;2023-07-30T03:16:12;98873.97;;;25.68;94.84
12897;BME280;6516;35.028;32.372;2023-07-30T03:18:40;98875.66;;;25.96;95.26
12897;BME280;6516;35.028;32.372;2023-07-30T03:21:10;98869.69;;;26.27;92.79
12897;BME280;6516;35.028;32.372;2023-07-30T03:23:37;98879.66;;;26.09;91.96
12897;BME280;6516;35.028;32.372;2023-07-30T03:26:06;98885.97;;;26.00;92.56
12897;BME280;6516;35.028;32.372;2023-07-30T03:28:34;98890.19;;;25.85;93.32
12897;BME280;6516;35.028;32.372;2023-07-30T03:31:02;98896.28;;;25.70;94.40
12897;BME280;6516;35.028;32.372;2023-07-30T03:33:31;98893.28;;;25.90;95.15
12897;BME280;6516;35.028;32.372;2023-07-30T03:35:59;98903.00;;;26.18;92.96
12897;BME280;6516;35.028;32.372;2023-07-30T03:38:30;98903.00;;;26.18;90.61
12897;BME280;6516;35.028;32.372;2023-07-30T03:40:57;98899.56;;;26.08;91.34
12897;BME280;6516;35.028;32.372;2023-07-30T03:43:25;98907.28;;;26.03;91.90
12897;BME280;6516;35.028;32.372;2023-07-30T03:45:53;98905.88;;;25.99;92.35
12897;BME280;6516;35.028;32.372;2023-07-30T03:48:24;98909.19;;;25.93;92.93
12897;BME280;6516;35.028;32.372;2023-07-30T03:50:59;98912.75;;;26.11;94.72
12897;BME280;6516;35.028;32.372;2023-07-30T03:53:29;98915.16;;;26.40;93.04
12897;BME280;6516;35.028;32.372;2023-07-30T03:55:58;98915.63;;;26.53;90.24
12897;BME280;6516;35.028;32.372;2023-07-30T03:58:25;98921.56;;;26.56;89.86
12897;BME280;6516;35.028;32.372;2023-07-30T04:00:53;98919.84;;;26.55;89.70
12897;BME280;6516;35.028;32.372;2023-07-30T04:03:21;98924.13;;;26.58;90.06
12897;BME280;6516;35.028;32.372;2023-07-30T04:05:49;98919.50;;;26.68;90.46
12897;BME280;6516;35.028;32.372;2023-07-30T04:08:17;98936.69;;;26.92;88.42
12897;BME280;6516;35.028;32.372;2023-07-30T04:10:46;98931.34;;;27.00;88.01
12897;BME280;6516;35.028;32.372;2023-07-30T04:13:14;98923.59;;;27.05;88.51
12897;BME280;6516;35.028;32.372;2023-07-30T04:15:42;98933.41;;;27.07;87.44
12897;BME280;6516;35.028;32.372;2023-07-30T04:18:10;98926.84;;;27.09;87.41
12897;BME280;6516;35.028;32.372;2023-07-30T04:20:54;98927.09;;;27.24;86.83
12897;BME280;6516;35.028;32.372;2023-07-30T04:23:22;98929.06;;;27.47;85.31
12897;BME280;6516;35.028;32.372;2023-07-30T04:25:52;98927.97;;;27.66;82.79
12897;BME280;6516;35.028;32.372;2023-07-30T04:28:19;98918.91;;;27.83;82.77
12897;BME280;6516;35.028;32.372;2023-07-30T04:30:47;98931.94;;;27.87;82.07
12897;BME280;6516;35.028;32.372;2023-07-30T04:33:15;98921.13;;;28.03;81.89
12897;BME280;6516;35.028;32.372;2023-07-30T04:35:43;98926.09;;;28.32;79.96
12897;BME280;6516;35.028;32.372;2023-07-30T04:38:11;98927.31;;;28.77;73.16
12897;BME280;6516;35.028;32.372;2023-07-30T04:40:39;98920.41;;;29.29;66.40
12897;BME280;6516;35.028;32.372;2023-07-30T04:43:08;98929.31;;;29.62;59.00
12897;BME280;6516;35.028;32.372;2023-07-30T04:45:36;98931.75;;;29.79;58.32
12897;BME280;6516;35.028;32.372;2023-07-30T04:48:04;98929.00;;;29.87;56.02
12897;BME280;6516;35.028;32.372;2023-07-30T04:50:35;98930.81;;;29.95;53.52
12897;BME280;6516;35.028;32.372;2023-07-30T04:53:03;98931.66;;;30.26;53.70
12897;BME280;6516;35.028;32.372;2023-07-30T04:55:31;98924.28;;;30.57;51.34
12897;BME280;6516;35.028;32.372;2023-07-30T04:58:02;98929.28;;;31.05;49.94
12897;BME280;6516;35.028;32.372;2023-07-30T05:00:31;98922.72;;;31.57;48.79
12897;BME280;6516;35.028;32.372;2023-07-30T05:02:59;98919.16;;;32.21;47.22
12897;BME280;6516;35.028;32.372;2023-07-30T05:05:27;98917.66;;;32.61;45.97
12897;BME280;6516;35.028;32.372;2023-07-30T05:07:54;98922.78;;;33.19;44.57
12897;BME280;6516;35.028;32.372;2023-07-30T05:10:23;98920.00;;;33.46;44.64
12897;BME280;6516;35.028;32.372;2023-07-30T05:12:50;98923.41;;;33.89;43.45
12897;BME280;6516;35.028;32.372;2023-07-30T05:15:18;98923.50;;;34.28;43.72
12897;BME280;6516;35.028;32.372;2023-07-30T05:17:50;98929.44;;;34.38;43.35
12897;BME280;6516;35.028;32.372;2023-07-30T05:20:17;98928.00;;;34.68;43.81
12897;BME280;6516;35.028;32.372;2023-07-30T05:22:45;98925.28;;;34.94;42.18
12897;BME280;6516;35.028;32.372;2023-07-30T05:25:13;98924.66;;;35.12;41.65
12897;BME280;6516;35.028;32.372;2023-07-30T05:27:41;98918.94;;;35.20;43.56
12897;BME280;6516;35.028;32.372;2023-07-30T05:30:10;98924.63;;;35.18;43.42
12897;BME280;6516;35.028;32.372;2023-07-30T05:32:38;98928.00;;;35.14;41.82
12897;BME280;6516;35.028;32.372;2023-07-30T05:35:08;98926.53;;;35.18;41.64
12897;BME280;6516;35.028;32.372;2023-07-30T05:37:36;98930.53;;;35.15;41.55
12897;BME280;6516;35.028;32.372;2023-07-30T05:40:05;98931.16;;;35.11;41.84
12897;BME280;6516;35.028;32.372;2023-07-30T05:42:34;98926.09;;;35.40;42.45
12897;BME280;6516;35.028;32.372;2023-07-30T05:45:02;98929.06;;;35.13;42.57
12897;BME280;6516;35.028;32.372;2023-07-30T05:47:30;98930.97;;;34.93;42.86
12897;BME280;6516;35.028;32.372;2023-07-30T05:49:58;98926.97;;;34.95;42.61
12897;BME280;6516;35.028;32.372;2023-07-30T05:52:27;98926.34;;;35.00;42.15
12897;BME280;6516;35.028;32.372;2023-07-30T05:54:55;98935.63;;;34.99;42.28
12897;BME280;6516;35.028;32.372;2023-07-30T05:57:22;98933.91;;;35.04;41.23
12897;BME280;6516;35.028;32.372;2023-07-30T05:59:50;98940.22;;;35.18;38.95
12897;BME280;6516;35.028;32.372;2023-07-30T06:02:26;98935.19;;;35.28;41.74
12897;BME280;6516;35.028;32.372;2023-07-30T06:04:54;98934.28;;;35.40;44.20
12897;BME280;6516;35.028;32.372;2023-07-30T06:07:21;98917.00;;;35.59;43.25
12897;BME280;6516;35.028;32.372;2023-07-30T06:09:51;98927.91;;;35.66;42.50
12897;BME280;6516;35.028;32.372;2023-07-30T06:12:18;98927.06;;;35.78;42.72
12897;BME280;6516;35.028;32.372;2023-07-30T06:14:47;98926.84;;;36.17;43.38
12897;BME280;6516;35.028;32.372;2023-07-30T06:17:14;98918.78;;;36.29;42.90
12897;BME280;6516;35.028;32.372;2023-07-30T06:19:42;98926.38;;;36.64;43.27
12897;BME280;6516;35.028;32.372;2023-07-30T06:22:10;98928.19;;;36.77;42.62
12897;BME280;6516;35.028;32.372;2023-07-30T06:24:38;98918.22;;;36.82;41.20
12897;BME280;6516;35.028;32.372;2023-07-30T06:27:07;98921.53;;;37.15;40.81
12897;BME280;6516;35.028;32.372;2023-07-30T06:29:35;98916.28;;;37.07;41.10
12897;BME280;6516;35.028;32.372;2023-07-30T06:32:04;98921.31;;;37.17;41.67
12897;BME280;6516;35.028;32.372;2023-07-30T06:34:33;98929.03;;;37.26;42.19
12897;BME280;6516;35.028;32.372;2023-07-30T06:37:03;98927.75;;;37.04;42.37
12897;BME280;6516;35.028;32.372;2023-07-30T06:39:33;98926.69;;;37.05;42.56
12897;BME280;6516;35.028;32.372;2023-07-30T06:42:01;98928.19;;;37.01;43.15
12897;BME280;6516;35.028;32.372;2023-07-30T06:44:31;98931.16;;;36.75;43.51
12897;BME280;6516;35.028;32.372;2023-07-30T06:46:58;98934.59;;;36.71;43.94
12897;BME280;6516;35.028;32.372;2023-07-30T06:49:27;98935.50;;;36.52;43.90
12897;BME280;6516;35.028;32.372;2023-07-30T06:51:56;98932.88;;;36.70;44.15
12897;BME280;6516;35.028;32.372;2023-07-30T06:54:24;98935.94;;;36.86;43.98
12897;BME280;6516;35.028;32.372;2023-07-30T06:56:52;98938.09;;;36.78;43.29
12897;BME280;6516;35.028;32.372;2023-07-30T06:59:20;98939.81;;;36.72;44.33
12897;BME280;6516;35.028;32.372;2023-07-30T07:01:49;98932.84;;;36.76;44.46
12897;BME280;6516;35.028;32.372;2023-07-30T07:04:20;98936.88;;;36.98;43.38
12897;BME280;6516;35.028;32.372;2023-07-30T07:06:49;98938.56;;;37.24;42.21
12897;BME280;6516;35.028;32.372;2023-07-30T07:09:17;98930.66;;;36.85;42.89
12897;BME280;6516;35.028;32.372;2023-07-30T07:11:45;98934.13;;;36.74;43.83
12897;BME280;6516;35.028;32.372;2023-07-30T07:14:13;98938.28;;;36.83;43.79
12897;BME280;6516;35.028;32.372;2023-07-30T07:16:41;98946.28;;;36.84;44.38
12897;BME280;6516;35.028;32.372;2023-07-30T07:19:11;98936.75;;;37.11;44.29
12897;BME280;6516;35.028;32.372;2023-07-30T07:21:39;98945.06;;;37.05;45.38
12897;BME280;6516;35.028;32.372;2023-07-30T07:24:06;98948.06;;;36.97;45.32
12897;BME280;6516;35.028;32.372;2023-07-30T07:26:35;98944.22;;;36.80;46.38
12897;BME280;6516;35.028;32.372;2023-07-30T07:29:03;98946.63;;;36.94;46.39
12897;BME280;6516;35.028;32.372;2023-07-30T07:31:31;98944.38;;;37.09;46.78
12897;BME280;6516;35.028;32.372;2023-07-30T07:33:58;98943.44;;;37.22;46.80
12897;BME280;6516;35.028;32.372;2023-07-30T07:36:28;98945.41;;;37.15;47.34
12897;BME280;6516;35.028;32.372;2023-07-30T07:38:55;98939.13;;;37.32;47.67
12897;BME280;6516;35.028;32.372;2023-07-30T07:41:24;98943.53;;;37.58;47.19
12897;BME280;6516;35.028;32.372;2023-07-30T07:43:58;98944.91;;;37.85;46.26
12897;BME280;6516;35.028;32.372;2023-07-30T07:46:26;98947.72;;;37.60;46.73
12897;BME280;6516;35.028;32.372;2023-07-30T07:48:54;98952.69;;;37.27;48.31
12897;BME280;6516;35.028;32.372;2023-07-30T07:51:22;98950.31;;;37.06;48.12
12897;BME280;6516;35.028;32.372;2023-07-30T07:53:55;98953.25;;;37.54;46.66
12897;BME280;6516;35.028;32.372;2023-07-30T07:56:24;98957.63;;;37.61;46.12
12897;BME280;6516;35.028;32.372;2023-07-30T07:58:51;98954.88;;;37.61;46.59
12897;BME280;6516;35.028;32.372;2023-07-30T08:01:19;98950.47;;;37.78;45.82
12897;BME280;6516;35.028;32.372;2023-07-30T08:03:47;98947.09;;;37.76;46.10
12897;BME280;6516;35.028;32.372;2023-07-30T08:06:15;98945.47;;;37.87;45.74
12897;BME280;6516;35.028;32.372;2023-07-30T08:08:43;98956.88;;;38.08;46.34
12897;BME280;6516;35.028;32.372;2023-07-30T08:11:12;98960.00;;;37.94;46.82
12897;BME280;6516;35.028;32.372;2023-07-30T08:13:40;98951.84;;;38.05;46.44
12897;BME280;6516;35.028;32.372;2023-07-30T08:16:08;98950.19;;;38.04;46.21
12897;BME280;6516;35.028;32.372;2023-07-30T08:18:37;98950.47;;;37.96;45.44
12897;BME280;6516;35.028;32.372;2023-07-30T08:21:04;98947.41;;;38.22;45.29
12897;BME280;6516;35.028;32.372;2023-07-30T08:23:32;98942.66;;;37.93;45.44
12897;BME280;6516;35.028;32.372;2023-07-30T08:26:00;98942.00;;;37.62;46.59
12897;BME280;6516;35.028;32.372;2023-07-30T08:28:30;98945.88;;;37.90;46.23
12897;BME280;6516;35.028;32.372;2023-07-30T08:31:00;98956.41;;;38.11;45.33
12897;BME280;6516;35.028;32.372;2023-07-30T08:33:29;98953.97;;;38.03;45.17
12897;BME280;6516;35.028;32.372;2023-07-30T08:35:57;98959.63;;;37.90;45.82
12897;BME280;6516;35.028;32.372;2023-07-30T08:38:28;98955.88;;;38.21;45.11
12897;BME280;6516;35.028;32.372;2023-07-30T08:40:57;98962.16;;;38.39;44.76
12897;BME280;6516;35.028;32.372;2023-07-30T08:43:25;98960.75;;;38.19;44.87
12897;BME280;6516;35.028;32.372;2023-07-30T08:45:54;98949.59;;;38.43;44.27
12897;BME280;6516;35.028;32.372;2023-07-30T08:48:22;98960.09;;;38.53;44.08
12897;BME280;6516;35.028;32.372;2023-07-30T08:50:52;98956.06;;;38.37;44.09
12897;BME280;6516;35.028;32.372;2023-07-30T08:53:24;98949.06;;;38.23;44.65
12897;BME280;6516;35.028;32.372;2023-07-30T08:55:54;98947.81;;;38.37;43.91
12897;BME280;6516;35.028;32.372;2023-07-30T08:58:23;98950.66;;;38.60;43.92
12897;BME280;6516;35.028;32.372;2023-07-30T09:00:55;98940.91;;;38.87;42.88
12897;BME280;6516;35.028;32.372;2023-07-30T09:03:24;98943.28;;;38.72;43.04
12897;BME280;6516;35.028;32.372;2023-07-30T09:05:54;98936.50;;;38.45;43.30
12897;BME280;6516;35.028;32.372;2023-07-30T09:08:23;98941.81;;;38.58;43.33
12897;BME280;6516;35.028;32.372;2023-07-30T09:10:51;98936.34;;;38.81;43.00
12897;BME280;6516;35.028;32.372;2023-07-30T09:13:22;98941.19;;;38.97;42.87
12897;BME280;6516;35.028;32.372;2023-07-30T09:15:51;98934.47;;;38.52;43.08
12897;BME280;6516;35.028;32.372;2023-07-30T09:18:20;98926.38;;;38.39;43.30
12897;BME280;6516;35.028;32.372;2023-07-30T09:20:48;98927.75;;;38.48;43.70
12897;BME280;6516;35.028;32.372;2023-07-30T09:23:17;98918.38;;;38.67;43.11
12897;BME280;6516;35.028;32.372;2023-07-30T09:25:47;98917.25;;;39.09;41.73
12897;BME280;6516;35.028;32.372;2023-07-30T09:28:18;98911.50;;;39.22;42.07
12897;BME280;6516;35.028;32.372;2023-07-30T09:30:49;98909.34;;;39.47;41.82
12897;BME280;6516;35.028;32.372;2023-07-30T09:33:20;98911.22;;;39.70;41.38
12897;BME280;6516;35.028;32.372;2023-07-30T09:35:49;98903.78;;;39.70;41.02
12897;BME280;6516;35.028;32.372;2023-07-30T09:38:19;98906.69;;;39.52;41.69
12897;BME280;6516;35.028;32.372;2023-07-30T09:40:48;98902.84;;;39.53;41.52
12897;BME280;6516;35.028;32.372;2023-07-30T09:43:17;98899.06;;;39.31;41.79
12897;BME280;6516;35.028;32.372;2023-07-30T09:45:46;98895.78;;;39.11;42.01
12897;BME280;6516;35.028;32.372;2023-07-30T09:48:14;98900.84;;;38.50;43.50
12897;BME280;6516;35.028;32.372;2023-07-30T09:50:43;98894.00;;;38.94;43.10
12897;BME280;6516;35.028;32.372;2023-07-30T09:53:14;98902.97;;;38.89;43.29
12897;BME280;6516;35.028;32.372;2023-07-30T09:55:45;98902.63;;;39.20;42.42
12897;BME280;6516;35.028;32.372;2023-07-30T09:58:13;98896.88;;;39.22;41.81
12897;BME280;6516;35.028;32.372;2023-07-30T10:00:41;98893.41;;;39.03;42.54
12897;BME280;6516;35.028;32.372;2023-07-30T10:03:12;98893.53;;;39.08;42.30
12897;BME280;6516;35.028;32.372;2023-07-30T10:05:44;98888.97;;;38.91;43.01
12897;BME280;6516;35.028;32.372;2023-07-30T10:08:19;98892.94;;;39.06;42.82
12897;BME280;6516;35.028;32.372;2023-07-30T10:10:49;98890.41;;;39.16;42.61
12897;BME280;6516;35.028;32.372;2023-07-30T10:13:19;98888.81;;;39.55;42.28
12897;BME280;6516;35.028;32.372;2023-07-30T10:15:47;98883.19;;;39.61;42.00
12897;BME280;6516;35.028;32.372;2023-07-30T10:18:16;98873.44;;;40.10;41.58
12897;BME280;6516;35.028;32.372;2023-07-30T10:20:52;98880.81;;;40.05;40.93
12897;BME280;6516;35.028;32.372;2023-07-30T10:23:27;98881.66;;;39.94;40.90
12897;BME280;6516;35.028;32.372;2023-07-30T10:25:55;98871.53;;;40.11;40.75
12897;BME280;6516;35.028;32.372;2023-07-30T10:28:32;98884.22;;;40.23;41.13
12897;BME280;6516;35.028;32.372;2023-07-30T10:31:03;98882.88;;;40.26;40.50
12897;BME280;6516;35.028;32.372;2023-07-30T10:33:47;98878.31;;;40.48;39.84
12897;BME280;6516;35.028;32.372;2023-07-30T10:36:30;98871.53;;;40.11;40.18
12897;BME280;6516;35.028;32.372;2023-07-30T10:39:10;98873.72;;;40.09;39.73
12897;BME280;6516;35.028;32.372;2023-07-30T10:41:38;98861.50;;;40.05;39.12
12897;BME280;6516;35.028;32.372;2023-07-30T10:44:17;98863.59;;;40.14;36.57
12897;BME280;6516;35.028;32.372;2023-07-30T10:46:52;98856.56;;;39.79;36.53
12897;BME280;6516;35.028;32.372;2023-07-30T10:49:20;98860.69;;;39.93;36.68
12897;BME280;6516;35.028;32.372;2023-07-30T10:51:51;98859.72;;;39.24;38.64
12897;BME280;6516;35.028;32.372;2023-07-30T10:54:19;98855.19;;;39.30;38.08
12897;BME280;6516;35.028;32.372;2023-07-30T10:56:47;98852.91;;;39.15;38.63
12897;BME280;6516;35.028;32.372;2023-07-30T10:59:15;98862.84;;;39.28;39.26
12897;BME280;6516;35.028;32.372;2023-07-30T11:01:44;98852.91;;;39.38;38.88
12897;BME280;6516;35.028;32.372;2023-07-30T11:04:13;98847.97;;;38.71;39.77
12897;BME280;6516;35.028;32.372;2023-07-30T11:06:45;98854.84;;;38.39;41.37
12897;BME280;6516;35.028;32.372;2023-07-30T11:09:23;98850.38;;;38.27;41.22
12897;BME280;6516;35.028;32.372;2023-07-30T11:11:53;98853.63;;;38.35;41.26
12897;BME280;6516;35.028;32.372;2023-07-30T11:14:23;98847.34;;;38.46;40.97
12897;BME280;6516;35.028;32.372;2023-07-30T11:16:54;98852.19;;;38.33;41.26
12897;BME280;6516;35.028;32.372;2023-07-30T11:19:24;98850.47;;;37.91;41.88
12897;BME280;6516;35.028;32.372;2023-07-30T11:21:53;98848.72;;;37.96;41.36
12897;BME280;6516;35.028;32.372;2023-07-30T11:24:33;98847.47;;;37.63;41.69
12897;BME280;6516;35.028;32.372;2023-07-30T11:27:01;98847.53;;;37.56;41.83
12897;BME280;6516;35.028;32.372;2023-07-30T11:29:29;98843.28;;;37.60;41.51
12897;BME280;6516;35.028;32.372;2023-07-30T11:31:58;98827.78;;;37.95;40.75
12897;BME280;6516;35.028;32.372;2023-07-30T11:34:30;98831.63;;;38.35;39.50
12897;BME280;6516;35.028;32.372;2023-07-30T11:37:02;98825.72;;;38.20;38.90
12897;BME280;6516;35.028;32.372;2023-07-30T11:39:32;98818.22;;;38.27;38.65
12897;BME280;6516;35.028;32.372;2023-07-30T11:42:00;98822.09;;;38.38;38.59
12897;BME280;6516;35.028;32.372;2023-07-30T11:44:32;98823.53;;;38.40;38.31
12897;BME280;6516;35.028;32.372;2023-07-30T11:47:04;98814.75;;;38.32;39.48
12897;BME280;6516;35.028;32.372;2023-07-30T11:49:32;98814.56;;;38.45;39.12
12897;BME280;6516;35.028;32.372;2023-07-30T11:52:06;98818.66;;;38.54;37.26
12897;BME280;6516;35.028;32.372;2023-07-30T11:54:36;98815.03;;;38.53;37.38
12897;BME280;6516;35.028;32.372;2023-07-30T11:57:04;98814.34;;;38.58;37.13
12897;BME280;6516;35.028;32.372;2023-07-30T11:59:33;98819.28;;;38.26;37.11
12897;BME280;6516;35.028;32.372;2023-07-30T12:02:02;98819.34;;;38.08;37.80
12897;BME280;6516;35.028;32.372;2023-07-30T12:04:31;98823.50;;;37.99;37.30
12897;BME280;6516;35.028;32.372;2023-07-30T12:07:06;98816.44;;;37.74;38.52
12897;BME280;6516;35.028;32.372;2023-07-30T12:09:38;98826.41;;;37.75;37.66
12897;BME280;6516;35.028;32.372;2023-07-30T12:12:06;98820.50;;;37.71;37.22
12897;BME280;6516;35.028;32.372;2023-07-30T12:14:43;98818.97;;;37.75;36.84
12897;BME280;6516;35.028;32.372;2023-07-30T12:17:12;98807.53;;;37.06;35.39
12897;BME280;6516;35.028;32.372;2023-07-30T12:19:39;98816.41;;;37.26;35.16
12897;BME280;6516;35.028;32.372;2023-07-30T12:22:08;98809.25;;;37.25;35.50
12897;BME280;6516;35.028;32.372;2023-07-30T12:24:37;98812.53;;;37.34;35.47
12897;BME280;6516;35.028;32.372;2023-07-30T12:27:05;98810.34;;;37.72;34.69
12897;BME280;6516;35.028;32.372;2023-07-30T12:29:33;98818.63;;;38.01;32.15
12897;BME280;6516;35.028;32.372;2023-07-30T12:32:01;98804.25;;;37.99;35.50
12897;BME280;6516;35.028;32.372;2023-07-30T12:34:29;98820.38;;;37.66;33.59
12897;BME280;6516;35.028;32.372;2023-07-30T12:36:56;98813.50;;;37.39;37.13
12897;BME280;6516;35.028;32.372;2023-07-30T12:39:25;98813.66;;;36.66;35.92
12897;BME280;6516;35.028;32.372;2023-07-30T12:41:54;98816.56;;;36.71;38.17
12897;BME280;6516;35.028;32.372;2023-07-30T12:44:22;98819.56;;;37.12;38.40
12897;BME280;6516;35.028;32.372;2023-07-30T12:46:50;98815.50;;;37.32;37.73
12897;BME280;6516;35.028;32.372;2023-07-30T12:49:17;98811.72;;;36.91;38.01
12897;BME280;6516;35.028;32.372;2023-07-30T12:51:45;98818.28;;;36.65;38.88
12897;BME280;6516;35.028;32.372;2023-07-30T12:54:13;98806.28;;;36.60;38.58
12897;BME280;6516;35.028;32.372;2023-07-30T12:56:41;98818.78;;;36.31;40.69
12897;BME280;6516;35.028;32.372;2023-07-30T12:59:10;98816.44;;;36.04;39.88
12897;BME280;6516;35.028;32.372;2023-07-30T13:01:37;98814.06;;;35.70;40.17
12897;BME280;6516;35.028;32.372;2023-07-30T13:04:05;98801.75;;;35.92;40.60
12897;BME280;6516;35.028;32.372;2023-07-30T13:06:33;98804.84;;;35.64;40.17
12897;BME280;6516;35.028;32.372;2023-07-30T13:09:01;98811.94;;;35.34;41.53
12897;BME280;6516;35.028;32.372;2023-07-30T13:11:29;98808.78;;;35.24;42.54